sensor_id;sensor_type;location;lat;lon;timestamp;temperature;humidity
11083;DHT22;5595;50.186;8.468;2023-07-24T00:01:49;18.80;99.90
11083;DHT22;5595;50.186;8.468;2023-07-24T00:04:16;18.80;99.90
11083;DHT22;5595;50.186;8.468;2023-07-24T00:06:43;18.70;99.90
11083;DHT22;5595;50.186;8.468;2023-07-24T00:09:09;18.60;99.90
11083;DHT22;5595;50.186;8.468;2023-07-24T00:11:36;18.60;99.90
11083;DHT22;5595;50.186;8.468;2023-07-24T00:14:03;18.60;99.90
11083;DHT22;5595;50.186;8.468;2023-07-24T00:16:32;18.50;99.90
11083;DHT22;5595;50.186;8.468;2023-07-24T00:18:58;18.50;99.90
11083;DHT22;5595;50.186;8.468;2023-07-24T00:21:25;18.50;99.90
11083;DHT22;5595;50.186;8.468;2023-07-24T00:23:52;18.50;99.90
11083;DHT22;5595;50.186;8.468;2023-07-24T00:26:19;18.50;99.90
11083;DHT22;5595;50.186;8.468;2023-07-24T00:28:45;18.40;99.90
11083;DHT22;5595;50.186;8.468;2023-07-24T00:31:12;18.50;99.90
11083;DHT22;5595;50.186;8.468;2023-07-24T00:33:40;18.50;99.90
11083;DHT22;5595;50.186;8.468;2023-07-24T00:36:07;18.40;99.90
11083;DHT22;5595;50.186;8.468;2023-07-24T00:38:34;18.50;99.90
11083;DHT22;5595;50.186;8.468;2023-07-24T00:41:01;18.50;99.90
11083;DHT22;5595;50.186;8.468;2023-07-24T00:43:27;18.50;99.90
11083;DHT22;5595;50.186;8.468;2023-07-24T00:45:56;18.50;99.90
11083;DHT22;5595;50.186;8.468;2023-07-24T00:48:23;18.60;99.90
11083;DHT22;5595;50.186;8.468;2023-07-24T00:50:51;18.50;99.90
11083;DHT22;5595;50.186;8.468;2023-07-24T00:53:18;18.60;99.90
11083;DHT22;5595;50.186;8.468;2023-07-24T00:55:46;18.60;99.90
11083;DHT22;5595;50.186;8.468;2023-07-24T00:58:16;18.60;99.90
11083;DHT22;5595;50.186;8.468;2023-07-24T01:00:43;18.60;99.90
11083;DHT22;5595;50.186;8.468;2023-07-24T01:03:10;18.50;99.90
11083;DHT22;5595;50.186;8.468;2023-07-24T01:05:38;18.50;99.90
11083;DHT22;5595;50.186;8.468;2023-07-24T01:08:07;18.50;99.90
11083;DHT22;5595;50.186;8.468;2023-07-24T01:10:34;18.40;99.90
11083;DHT22;5595;50.186;8.468;2023-07-24T01:13:05;18.40;99.90
11083;DHT22;5595;50.186;8.468;2023-07-24T01:15:34;18.30;99.90
11083;DHT22;5595;50.186;8.468;2023-07-24T01:18:07;18.30;99.90
11083;DHT22;5595;50.186;8.468;2023-07-24T01:20:37;18.20;99.90
11083;DHT22;5595;50.186;8.468;2023-07-24T01:23:27;18.20;99.90
11083;DHT22;5595;50.186;8.468;2023-07-24T01:25:58;18.10;99.90
11083;DHT22;5595;50.186;8.468;2023-07-24T01:28:25;18.10;99.90
11083;DHT22;5595;50.186;8.468;2023-07-24T01:30:52;18.10;99.90
11083;DHT22;5595;50.186;8.468;2023-07-24T01:33:20;18.10;99.90
11083;DHT22;5595;50.186;8.468;2023-07-24T01:35:49;18.00;99.90
11083;DHT22;5595;50.186;8.468;2023-07-24T01:38:17;18.00;99.90
11083;DHT22;5595;50.186;8.468;2023-07-24T01:40:45;17.90;99.90
11083;DHT22;5595;50.186;8.468;2023-07-24T01:43:14;17.90;99.90
11083;DHT22;5595;50.186;8.468;2023-07-24T01:45:40;17.90;99.90
11083;DHT22;5595;50.186;8.468;2023-07-24T01:48:07;17.80;99.90
11083;DHT22;5595;50.186;8.468;2023-07-24T01:50:34;17.80;99.90
11083;DHT22;5595;50.186;8.468;2023-07-24T01:53:01;17.80;99.90
11083;DHT22;5595;50.186;8.468;2023-07-24T01:55:28;17.80;99.90
11083;DHT22;5595;50.186;8.468;2023-07-24T01:57:54;17.80;99.90
11083;DHT22;5595;50.186;8.468;2023-07-24T02:00:22;17.80;99.90
11083;DHT22;5595;50.186;8.468;2023-07-24T02:02:49;17.80;99.90
11083;DHT22;5595;50.186;8.468;2023-07-24T02:05:16;17.80;99.90
11083;DHT22;5595;50.186;8.468;2023-07-24T02:07:43;17.80;99.90
11083;DHT22;5595;50.186;8.468;2023-07-24T02:10:10;17.80;99.90
11083;DHT22;5595;50.186;8.468;2023-07-24T02:12:36;17.80;99.90
11083;DHT22;5595;50.186;8.468;2023-07-24T02:15:04;17.80;99.90
11083;DHT22;5595;50.186;8.468;2023-07-24T02:17:32;17.80;99.90
11083;DHT22;5595;50.186;8.468;2023-07-24T02:19:58;17.90;99.90
11083;DHT22;5595;50.186;8.468;2023-07-24T02:22:25;17.80;99.90
11083;DHT22;5595;50.186;8.468;2023-07-24T02:24:52;17.80;99.90
11083;DHT22;5595;50.186;8.468;2023-07-24T02:27:25;17.80;99.90
11083;DHT22;5595;50.186;8.468;2023-07-24T02:29:52;17.80;99.90
11083;DHT22;5595;50.186;8.468;2023-07-24T02:32:19;17.70;99.90
11083;DHT22;5595;50.186;8.468;2023-07-24T02:34:49;17.70;99.90
11083;DHT22;5595;50.186;8.468;2023-07-24T02:37:16;17.70;99.90
11083;DHT22;5595;50.186;8.468;2023-07-24T02:39:43;17.70;99.90
11083;DHT22;5595;50.186;8.468;2023-07-24T02:42:09;17.80;99.90
11083;DHT22;5595;50.186;8.468;2023-07-24T02:44:36;17.80;99.90
11083;DHT22;5595;50.186;8.468;2023-07-24T02:47:03;17.80;99.90
11083;DHT22;5595;50.186;8.468;2023-07-24T02:49:31;17.80;99.90
11083;DHT22;5595;50.186;8.468;2023-07-24T02:52:00;17.80;99.90
11083;DHT22;5595;50.186;8.468;2023-07-24T02:54:26;17.80;99.90
11083;DHT22;5595;50.186;8.468;2023-07-24T02:56:53;17.70;99.90
11083;DHT22;5595;50.186;8.468;2023-07-24T02:59:20;17.80;99.90
11083;DHT22;5595;50.186;8.468;2023-07-24T03:01:47;17.80;99.90
11083;DHT22;5595;50.186;8.468;2023-07-24T03:04:13;17.80;99.90
11083;DHT22;5595;50.186;8.468;2023-07-24T03:06:40;17.80;99.90
11083;DHT22;5595;50.186;8.468;2023-07-24T03:09:08;17.80;99.90
11083;DHT22;5595;50.186;8.468;2023-07-24T03:11:35;17.70;99.90
11083;DHT22;5595;50.186;8.468;2023-07-24T03:14:02;17.70;99.90
11083;DHT22;5595;50.186;8.468;2023-07-24T03:16:29;17.80;99.90
11083;DHT22;5595;50.186;8.468;2023-07-24T03:18:55;17.80;99.90
11083;DHT22;5595;50.186;8.468;2023-07-24T03:21:22;17.90;99.90
11083;DHT22;5595;50.186;8.468;2023-07-24T03:23:49;17.90;99.90
11083;DHT22;5595;50.186;8.468;2023-07-24T03:26:20;17.90;99.90
11083;DHT22;5595;50.186;8.468;2023-07-24T03:28:46;17.80;99.90
11083;DHT22;5595;50.186;8.468;2023-07-24T03:31:13;17.80;99.90
11083;DHT22;5595;50.186;8.468;2023-07-24T03:33:40;17.70;99.90
11083;DHT22;5595;50.186;8.468;2023-07-24T03:36:06;17.70;99.90
11083;DHT22;5595;50.186;8.468;2023-07-24T03:38:33;17.70;99.90
11083;DHT22;5595;50.186;8.468;2023-07-24T03:41:00;17.70;99.90
11083;DHT22;5595;50.186;8.468;2023-07-24T03:43:28;17.60;99.90
11083;DHT22;5595;50.186;8.468;2023-07-24T03:45:55;17.60;99.90
11083;DHT22;5595;50.186;8.468;2023-07-24T03:48:22;17.60;99.90
11083;DHT22;5595;50.186;8.468;2023-07-24T03:50:49;17.60;99.90
11083;DHT22;5595;50.186;8.468;2023-07-24T03:53:17;17.50;99.90
11083;DHT22;5595;50.186;8.468;2023-07-24T03:55:44;17.40;99.90
11083;DHT22;5595;50.186;8.468;2023-07-24T03:58:11;17.40;99.90
11083;DHT22;5595;50.186;8.468;2023-07-24T04:00:39;17.40;99.90
11083;DHT22;5595;50.186;8.468;2023-07-24T04:03:06;17.30;99.90
11083;DHT22;5595;50.186;8.468;2023-07-24T04:05:34;17.30;99.90
11083;DHT22;5595;50.186;8.468;2023-07-24T04:08:01;17.30;99.90
11083;DHT22;5595;50.186;8.468;2023-07-24T04:10:28;17.30;99.90
11083;DHT22;5595;50.186;8.468;2023-07-24T04:12:56;17.30;99.90
11083;DHT22;5595;50.186;8.468;2023-07-24T04:15:23;17.30;99.90
11083;DHT22;5595;50.186;8.468;2023-07-24T04:17:51;17.40;99.90
11083;DHT22;5595;50.186;8.468;2023-07-24T04:20:18;17.40;99.90
11083;DHT22;5595;50.186;8.468;2023-07-24T04:22:45;17.50;99.90
11083;DHT22;5595;50.186;8.468;2023-07-24T04:25:11;17.50;99.90
11083;DHT22;5595;50.186;8.468;2023-07-24T04:27:38;17.50;99.90
11083;DHT22;5595;50.186;8.468;2023-07-24T04:30:06;17.60;99.90
11083;DHT22;5595;50.186;8.468;2023-07-24T04:32:33;17.60;99.90
11083;DHT22;5595;50.186;8.468;2023-07-24T04:35:01;17.60;99.90
11083;DHT22;5595;50.186;8.468;2023-07-24T04:37:28;17.70;99.90
11083;DHT22;5595;50.186;8.468;2023-07-24T04:39:55;17.70;99.90
11083;DHT22;5595;50.186;8.468;2023-07-24T04:42:21;17.70;99.90
11083;DHT22;5595;50.186;8.468;2023-07-24T04:44:48;17.70;99.90
11083;DHT22;5595;50.186;8.468;2023-07-24T04:47:17;17.70;99.90
11083;DHT22;5595;50.186;8.468;2023-07-24T04:49:44;17.80;99.90
11083;DHT22;5595;50.186;8.468;2023-07-24T04:52:12;17.80;99.90
11083;DHT22;5595;50.186;8.468;2023-07-24T04:54:39;17.90;99.90
11083;DHT22;5595;50.186;8.468;2023-07-24T04:57:06;17.90;99.90
11083;DHT22;5595;50.186;8.468;2023-07-24T04:59:32;17.90;99.90
11083;DHT22;5595;50.186;8.468;2023-07-24T05:01:59;17.90;99.90
11083;DHT22;5595;50.186;8.468;2023-07-24T05:04:26;17.90;99.90
11083;DHT22;5595;50.186;8.468;2023-07-24T05:06:52;17.90;99.90
11083;DHT22;5595;50.186;8.468;2023-07-24T05:09:21;17.90;99.90
11083;DHT22;5595;50.186;8.468;2023-07-24T05:11:47;17.90;99.90
11083;DHT22;5595;50.186;8.468;2023-07-24T05:14:14;18.00;99.90
11083;DHT22;5595;50.186;8.468;2023-07-24T05:16:41;18.00;99.90
11083;DHT22;5595;50.186;8.468;2023-07-24T05:19:08;18.10;99.90
11083;DHT22;5595;50.186;8.468;2023-07-24T05:21:34;18.10;99.90
11083;DHT22;5595;50.186;8.468;2023-07-24T05:24:01;18.20;99.90
11083;DHT22;5595;50.186;8.468;2023-07-24T05:26:29;18.20;99.90
11083;DHT22;5595;50.186;8.468;2023-07-24T05:28:56;18.20;99.90
11083;DHT22;5595;50.186;8.468;2023-07-24T05:31:23;18.20;99.90
11083;DHT22;5595;50.186;8.468;2023-07-24T05:33:49;18.30;99.90
11083;DHT22;5595;50.186;8.468;2023-07-24T05:36:16;18.20;99.90
11083;DHT22;5595;50.186;8.468;2023-07-24T05:38:43;18.30;99.90
11083;DHT22;5595;50.186;8.468;2023-07-24T05:41:10;18.40;99.90
11083;DHT22;5595;50.186;8.468;2023-07-24T05:43:38;18.40;99.90
11083;DHT22;5595;50.186;8.468;2023-07-24T05:46:04;18.50;99.90
11083;DHT22;5595;50.186;8.468;2023-07-24T05:48:31;18.60;99.90
11083;DHT22;5595;50.186;8.468;2023-07-24T05:50:58;18.70;99.90
11083;DHT22;5595;50.186;8.468;2023-07-24T05:53:25;18.70;99.90
11083;DHT22;5595;50.186;8.468;2023-07-24T05:55:58;18.80;99.90
11083;DHT22;5595;50.186;8.468;2023-07-24T05:58:26;18.90;99.90
11083;DHT22;5595;50.186;8.468;2023-07-24T06:00:55;19.00;99.90
11083;DHT22;5595;50.186;8.468;2023-07-24T06:03:21;19.10;99.90
11083;DHT22;5595;50.186;8.468;2023-07-24T06:05:51;19.20;99.90
11083;DHT22;5595;50.186;8.468;2023-07-24T06:08:18;19.30;99.90
11083;DHT22;5595;50.186;8.468;2023-07-24T06:10:46;19.40;99.90
11083;DHT22;5595;50.186;8.468;2023-07-24T06:13:13;19.50;99.90
11083;DHT22;5595;50.186;8.468;2023-07-24T06:15:40;19.50;99.90
11083;DHT22;5595;50.186;8.468;2023-07-24T06:18:08;19.60;99.90
11083;DHT22;5595;50.186;8.468;2023-07-24T06:20:35;19.60;99.90
11083;DHT22;5595;50.186;8.468;2023-07-24T06:23:02;19.60;99.90
11083;DHT22;5595;50.186;8.468;2023-07-24T06:25:29;19.60;99.90
11083;DHT22;5595;50.186;8.468;2023-07-24T06:27:56;19.60;99.90
11083;DHT22;5595;50.186;8.468;2023-07-24T06:30:23;19.60;99.90
11083;DHT22;5595;50.186;8.468;2023-07-24T06:32:50;19.70;99.90
11083;DHT22;5595;50.186;8.468;2023-07-24T06:35:18;19.80;99.90
11083;DHT22;5595;50.186;8.468;2023-07-24T06:37:45;19.90;99.90
11083;DHT22;5595;50.186;8.468;2023-07-24T06:40:12;20.00;99.90
11083;DHT22;5595;50.186;8.468;2023-07-24T06:42:39;20.10;99.90
11083;DHT22;5595;50.186;8.468;2023-07-24T06:45:07;20.20;99.90
11083;DHT22;5595;50.186;8.468;2023-07-24T06:47:33;20.40;99.90
11083;DHT22;5595;50.186;8.468;2023-07-24T06:50:00;20.50;99.90
11083;DHT22;5595;50.186;8.468;2023-07-24T06:52:29;20.70;99.90
11083;DHT22;5595;50.186;8.468;2023-07-24T06:54:56;20.80;99.90
11083;DHT22;5595;50.186;8.468;2023-07-24T06:57:23;21.00;99.90
11083;DHT22;5595;50.186;8.468;2023-07-24T06:59:50;21.30;99.90
11083;DHT22;5595;50.186;8.468;2023-07-24T07:02:17;21.70;99.90
11083;DHT22;5595;50.186;8.468;2023-07-24T07:04:44;21.80;99.90
11083;DHT22;5595;50.186;8.468;2023-07-24T07:07:11;21.90;99.90
11083;DHT22;5595;50.186;8.468;2023-07-24T07:09:39;22.00;99.90
11083;DHT22;5595;50.186;8.468;2023-07-24T07:12:07;22.20;99.90
11083;DHT22;5595;50.186;8.468;2023-07-24T07:14:34;22.40;99.90
11083;DHT22;5595;50.186;8.468;2023-07-24T07:17:00;22.60;99.90
11083;DHT22;5595;50.186;8.468;2023-07-24T07:19:27;22.80;99.90
11083;DHT22;5595;50.186;8.468;2023-07-24T07:21:54;22.80;99.90
11083;DHT22;5595;50.186;8.468;2023-07-24T07:24:21;22.70;99.90
11083;DHT22;5595;50.186;8.468;2023-07-24T07:26:50;22.60;99.90
11083;DHT22;5595;50.186;8.468;2023-07-24T07:29:17;22.50;99.90
11083;DHT22;5595;50.186;8.468;2023-07-24T07:31:44;22.30;99.90
11083;DHT22;5595;50.186;8.468;2023-07-24T07:34:11;22.20;99.90
11083;DHT22;5595;50.186;8.468;2023-07-24T07:36:37;22.10;99.90
11083;DHT22;5595;50.186;8.468;2023-07-24T07:39:04;22.00;99.90
11083;DHT22;5595;50.186;8.468;2023-07-24T07:41:31;21.90;99.90
11083;DHT22;5595;50.186;8.468;2023-07-24T07:43:59;22.00;99.90
11083;DHT22;5595;50.186;8.468;2023-07-24T07:46:26;21.90;99.90
11083;DHT22;5595;50.186;8.468;2023-07-24T07:48:53;21.90;99.90
11083;DHT22;5595;50.186;8.468;2023-07-24T07:51:20;21.90;99.90
11083;DHT22;5595;50.186;8.468;2023-07-24T07:53:47;22.00;99.90
11083;DHT22;5595;50.186;8.468;2023-07-24T07:56:13;22.00;99.90
11083;DHT22;5595;50.186;8.468;2023-07-24T07:58:40;22.10;99.90
11083;DHT22;5595;50.186;8.468;2023-07-24T08:01:08;22.10;99.90
11083;DHT22;5595;50.186;8.468;2023-07-24T08:03:35;22.10;99.90
11083;DHT22;5595;50.186;8.468;2023-07-24T08:06:02;22.10;99.90
11083;DHT22;5595;50.186;8.468;2023-07-24T08:08:29;22.20;99.90
11083;DHT22;5595;50.186;8.468;2023-07-24T08:10:55;22.20;99.90
11083;DHT22;5595;50.186;8.468;2023-07-24T08:13:22;22.20;99.90
11083;DHT22;5595;50.186;8.468;2023-07-24T08:15:49;22.20;99.90
11083;DHT22;5595;50.186;8.468;2023-07-24T08:18:17;22.20;99.90
11083;DHT22;5595;50.186;8.468;2023-07-24T08:20:44;22.20;99.90
11083;DHT22;5595;50.186;8.468;2023-07-24T08:23:11;22.20;99.90
11083;DHT22;5595;50.186;8.468;2023-07-24T08:25:37;22.20;99.90
11083;DHT22;5595;50.186;8.468;2023-07-24T08:28:04;22.20;99.90
11083;DHT22;5595;50.186;8.468;2023-07-24T08:30:31;22.30;99.90
11083;DHT22;5595;50.186;8.468;2023-07-24T08:32:58;22.40;99.90
11083;DHT22;5595;50.186;8.468;2023-07-24T08:35:26;22.50;99.90
11083;DHT22;5595;50.186;8.468;2023-07-24T08:37:53;22.70;99.90
11083;DHT22;5595;50.186;8.468;2023-07-24T08:40:20;22.80;99.90
11083;DHT22;5595;50.186;8.468;2023-07-24T08:42:49;23.00;99.90
11083;DHT22;5595;50.186;8.468;2023-07-24T08:45:16;23.30;99.90
11083;DHT22;5595;50.186;8.468;2023-07-24T08:47:44;23.40;99.90
11083;DHT22;5595;50.186;8.468;2023-07-24T08:50:12;23.50;99.90
11083;DHT22;5595;50.186;8.468;2023-07-24T08:52:42;23.60;99.90
11083;DHT22;5595;50.186;8.468;2023-07-24T08:55:10;23.70;99.90
11083;DHT22;5595;50.186;8.468;2023-07-24T08:57:37;23.80;99.90
11083;DHT22;5595;50.186;8.468;2023-07-24T09:00:04;23.90;99.90
11083;DHT22;5595;50.186;8.468;2023-07-24T09:02:32;23.90;99.90
11083;DHT22;5595;50.186;8.468;2023-07-24T09:04:59;24.00;99.90
11083;DHT22;5595;50.186;8.468;2023-07-24T09:07:26;24.00;99.90
11083;DHT22;5595;50.186;8.468;2023-07-24T09:09:54;24.20;99.90
11083;DHT22;5595;50.186;8.468;2023-07-24T09:12:22;24.40;99.90
11083;DHT22;5595;50.186;8.468;2023-07-24T09:15:00;24.70;99.90
11083;DHT22;5595;50.186;8.468;2023-07-24T09:17:28;25.10;99.90
11083;DHT22;5595;50.186;8.468;2023-07-24T09:19:56;25.10;99.90
11083;DHT22;5595;50.186;8.468;2023-07-24T09:22:23;25.10;99.90
11083;DHT22;5595;50.186;8.468;2023-07-24T09:24:54;25.00;99.90
11083;DHT22;5595;50.186;8.468;2023-07-24T09:27:24;25.00;99.90
11083;DHT22;5595;50.186;8.468;2023-07-24T09:29:51;24.90;99.90
11083;DHT22;5595;50.186;8.468;2023-07-24T09:32:22;24.80;99.90
11083;DHT22;5595;50.186;8.468;2023-07-24T09:34:49;24.60;99.90
11083;DHT22;5595;50.186;8.468;2023-07-24T09:37:27;24.50;99.90
11083;DHT22;5595;50.186;8.468;2023-07-24T09:39:55;24.40;99.90
11083;DHT22;5595;50.186;8.468;2023-07-24T09:42:29;24.40;99.90
11083;DHT22;5595;50.186;8.468;2023-07-24T09:44:56;24.40;99.90
11083;DHT22;5595;50.186;8.468;2023-07-24T09:47:23;24.40;99.90
11083;DHT22;5595;50.186;8.468;2023-07-24T09:49:50;24.50;99.90
11083;DHT22;5595;50.186;8.468;2023-07-24T09:52:19;24.60;99.90
11083;DHT22;5595;50.186;8.468;2023-07-24T09:54:52;24.90;99.90
11083;DHT22;5595;50.186;8.468;2023-07-24T09:57:23;25.00;99.90
11083;DHT22;5595;50.186;8.468;2023-07-24T09:59:51;25.10;99.90
11083;DHT22;5595;50.186;8.468;2023-07-24T10:02:19;25.20;99.90
11083;DHT22;5595;50.186;8.468;2023-07-24T10:04:46;25.10;99.90
11083;DHT22;5595;50.186;8.468;2023-07-24T10:07:14;25.00;99.90
11083;DHT22;5595;50.186;8.468;2023-07-24T10:09:43;24.90;99.90
11083;DHT22;5595;50.186;8.468;2023-07-24T10:12:10;25.00;99.90
11083;DHT22;5595;50.186;8.468;2023-07-24T10:14:38;25.20;99.90
11083;DHT22;5595;50.186;8.468;2023-07-24T10:17:05;25.30;99.90
11083;DHT22;5595;50.186;8.468;2023-07-24T10:19:36;25.30;99.90
11083;DHT22;5595;50.186;8.468;2023-07-24T10:22:03;25.40;99.90
11083;DHT22;5595;50.186;8.468;2023-07-24T10:24:30;25.30;99.90
11083;DHT22;5595;50.186;8.468;2023-07-24T10:26:57;25.30;99.90
11083;DHT22;5595;50.186;8.468;2023-07-24T10:29:24;25.20;99.90
11083;DHT22;5595;50.186;8.468;2023-07-24T10:31:55;25.20;99.90
11083;DHT22;5595;50.186;8.468;2023-07-24T10:34:22;25.30;99.90
11083;DHT22;5595;50.186;8.468;2023-07-24T10:36:49;25.30;99.90
11083;DHT22;5595;50.186;8.468;2023-07-24T10:39:17;25.50;99.90
11083;DHT22;5595;50.186;8.468;2023-07-24T10:41:46;25.50;99.90
11083;DHT22;5595;50.186;8.468;2023-07-24T10:44:13;25.70;99.90
11083;DHT22;5595;50.186;8.468;2023-07-24T10:46:41;25.90;99.90
11083;DHT22;5595;50.186;8.468;2023-07-24T10:49:09;26.00;99.90
11083;DHT22;5595;50.186;8.468;2023-07-24T10:51:36;26.20;99.30
11083;DHT22;5595;50.186;8.468;2023-07-24T10:54:04;26.20;99.10
11083;DHT22;5595;50.186;8.468;2023-07-24T10:56:31;26.20;98.70
11083;DHT22;5595;50.186;8.468;2023-07-24T10:59:02;26.30;98.60
11083;DHT22;5595;50.186;8.468;2023-07-24T11:01:31;26.30;98.20
11083;DHT22;5595;50.186;8.468;2023-07-24T11:03:58;26.30;98.00
11083;DHT22;5595;50.186;8.468;2023-07-24T11:06:27;26.30;96.80
11083;DHT22;5595;50.186;8.468;2023-07-24T11:08:55;26.30;96.70
11083;DHT22;5595;50.186;8.468;2023-07-24T11:11:27;26.20;95.70
11083;DHT22;5595;50.186;8.468;2023-07-24T11:13:54;26.20;95.90
11083;DHT22;5595;50.186;8.468;2023-07-24T11:16:21;26.20;95.40
11083;DHT22;5595;50.186;8.468;2023-07-24T11:18:49;26.30;95.90
11083;DHT22;5595;50.186;8.468;2023-07-24T11:21:17;26.40;95.30
11083;DHT22;5595;50.186;8.468;2023-07-24T11:23:50;26.40;94.70
11083;DHT22;5595;50.186;8.468;2023-07-24T11:26:18;26.50;94.40
11083;DHT22;5595;50.186;8.468;2023-07-24T11:28:45;26.40;93.90
11083;DHT22;5595;50.186;8.468;2023-07-24T11:31:12;26.30;93.90
11083;DHT22;5595;50.186;8.468;2023-07-24T11:33:41;26.20;93.80
11083;DHT22;5595;50.186;8.468;2023-07-24T11:36:08;26.20;93.90
11083;DHT22;5595;50.186;8.468;2023-07-24T11:38:36;26.10;94.10
11083;DHT22;5595;50.186;8.468;2023-07-24T11:41:05;26.10;93.80
11083;DHT22;5595;50.186;8.468;2023-07-24T11:43:34;26.00;94.30
11083;DHT22;5595;50.186;8.468;2023-07-24T11:46:01;26.20;94.50
11083;DHT22;5595;50.186;8.468;2023-07-24T11:48:29;26.40;94.60
11083;DHT22;5595;50.186;8.468;2023-07-24T11:50:56;26.40;94.70
11083;DHT22;5595;50.186;8.468;2023-07-24T11:53:25;26.50;94.90
11083;DHT22;5595;50.186;8.468;2023-07-24T11:55:52;26.40;94.90
11083;DHT22;5595;50.186;8.468;2023-07-24T11:58:21;26.40;95.20
11083;DHT22;5595;50.186;8.468;2023-07-24T12:00:49;26.70;95.40
11083;DHT22;5595;50.186;8.468;2023-07-24T12:03:19;27.10;95.20
11083;DHT22;5595;50.186;8.468;2023-07-24T12:05:46;27.40;95.00
11083;DHT22;5595;50.186;8.468;2023-07-24T12:08:13;27.40;94.40
11083;DHT22;5595;50.186;8.468;2023-07-24T12:10:40;27.50;94.20
11083;DHT22;5595;50.186;8.468;2023-07-24T12:13:07;27.20;94.10
11083;DHT22;5595;50.186;8.468;2023-07-24T12:15:35;27.10;93.90
11083;DHT22;5595;50.186;8.468;2023-07-24T12:18:03;26.70;94.10
11083;DHT22;5595;50.186;8.468;2023-07-24T12:20:30;26.50;94.50
11083;DHT22;5595;50.186;8.468;2023-07-24T12:22:58;26.60;95.00
11083;DHT22;5595;50.186;8.468;2023-07-24T12:25:24;26.70;95.20
11083;DHT22;5595;50.186;8.468;2023-07-24T12:27:51;26.90;95.20
11083;DHT22;5595;50.186;8.468;2023-07-24T12:30:18;27.20;95.00
11083;DHT22;5595;50.186;8.468;2023-07-24T12:32:46;27.50;94.60
11083;DHT22;5595;50.186;8.468;2023-07-24T12:35:15;27.50;94.40
11083;DHT22;5595;50.186;8.468;2023-07-24T12:37:42;27.50;94.10
11083;DHT22;5595;50.186;8.468;2023-07-24T12:40:10;27.40;94.30
11083;DHT22;5595;50.186;8.468;2023-07-24T12:42:36;27.40;94.50
11083;DHT22;5595;50.186;8.468;2023-07-24T12:45:04;27.40;94.10
11083;DHT22;5595;50.186;8.468;2023-07-24T12:47:32;27.30;94.00
11083;DHT22;5595;50.186;8.468;2023-07-24T12:50:00;27.10;94.10
11083;DHT22;5595;50.186;8.468;2023-07-24T12:52:29;26.80;94.50
11083;DHT22;5595;50.186;8.468;2023-07-24T12:54:55;26.70;94.80
11083;DHT22;5595;50.186;8.468;2023-07-24T12:57:22;26.60;94.90
11083;DHT22;5595;50.186;8.468;2023-07-24T12:59:49;26.70;95.10
11083;DHT22;5595;50.186;8.468;2023-07-24T13:02:16;26.80;94.90
11083;DHT22;5595;50.186;8.468;2023-07-24T13:04:42;26.70;95.50
11083;DHT22;5595;50.186;8.468;2023-07-24T13:07:11;26.70;95.20
11083;DHT22;5595;50.186;8.468;2023-07-24T13:09:37;26.60;95.00
11083;DHT22;5595;50.186;8.468;2023-07-24T13:12:05;26.60;94.90
11083;DHT22;5595;50.186;8.468;2023-07-24T13:14:32;26.90;95.20
11083;DHT22;5595;50.186;8.468;2023-07-24T13:16:59;27.10;95.00
11083;DHT22;5595;50.186;8.468;2023-07-24T13:19:25;27.20;94.70
11083;DHT22;5595;50.186;8.468;2023-07-24T13:21:52;27.50;94.30
11083;DHT22;5595;50.186;8.468;2023-07-24T13:24:20;27.80;94.30
11083;DHT22;5595;50.186;8.468;2023-07-24T13:26:47;28.00;93.10
11083;DHT22;5595;50.186;8.468;2023-07-24T13:29:14;27.70;92.90
11083;DHT22;5595;50.186;8.468;2023-07-24T13:31:41;27.50;93.10
11083;DHT22;5595;50.186;8.468;2023-07-24T13:34:07;27.50;93.40
11083;DHT22;5595;50.186;8.468;2023-07-24T13:36:34;27.50;93.10
11083;DHT22;5595;50.186;8.468;2023-07-24T13:39:01;27.30;92.50
11083;DHT22;5595;50.186;8.468;2023-07-24T13:41:29;27.20;93.00
11083;DHT22;5595;50.186;8.468;2023-07-24T13:43:57;27.40;93.00
11083;DHT22;5595;50.186;8.468;2023-07-24T13:46:24;27.40;92.70
11083;DHT22;5595;50.186;8.468;2023-07-24T13:48:50;27.20;92.90
11083;DHT22;5595;50.186;8.468;2023-07-24T13:51:17;27.20;93.00
11083;DHT22;5595;50.186;8.468;2023-07-24T13:53:44;27.20;93.10
11083;DHT22;5595;50.186;8.468;2023-07-24T13:56:13;27.20;93.20
11083;DHT22;5595;50.186;8.468;2023-07-24T13:58:41;27.40;93.10
11083;DHT22;5595;50.186;8.468;2023-07-24T14:01:08;27.60;93.20
11083;DHT22;5595;50.186;8.468;2023-07-24T14:03:35;27.60;93.00
11083;DHT22;5595;50.186;8.468;2023-07-24T14:06:02;27.40;92.90
11083;DHT22;5595;50.186;8.468;2023-07-24T14:08:29;27.10;93.00
11083;DHT22;5595;50.186;8.468;2023-07-24T14:10:56;26.70;93.20
11083;DHT22;5595;50.186;8.468;2023-07-24T14:13:24;26.20;93.80
11083;DHT22;5595;50.186;8.468;2023-07-24T14:15:52;25.80;94.50
11083;DHT22;5595;50.186;8.468;2023-07-24T14:18:18;25.50;95.20
11083;DHT22;5595;50.186;8.468;2023-07-24T14:20:45;25.30;95.80
11083;DHT22;5595;50.186;8.468;2023-07-24T14:23:12;25.10;96.40
11083;DHT22;5595;50.186;8.468;2023-07-24T14:25:39;24.90;96.80
11083;DHT22;5595;50.186;8.468;2023-07-24T14:28:06;24.60;96.10
11083;DHT22;5595;50.186;8.468;2023-07-24T14:30:33;24.20;96.30
11083;DHT22;5595;50.186;8.468;2023-07-24T14:33:01;23.90;97.00
11083;DHT22;5595;50.186;8.468;2023-07-24T14:35:28;23.70;99.20
11083;DHT22;5595;50.186;8.468;2023-07-24T14:37:54;23.40;99.90
11083;DHT22;5595;50.186;8.468;2023-07-24T14:40:21;23.30;99.90
11083;DHT22;5595;50.186;8.468;2023-07-24T14:42:48;23.00;99.90
11083;DHT22;5595;50.186;8.468;2023-07-24T14:45:14;22.90;99.90
11083;DHT22;5595;50.186;8.468;2023-07-24T14:47:41;22.80;99.90
11083;DHT22;5595;50.186;8.468;2023-07-24T14:50:10;22.90;99.90
11083;DHT22;5595;50.186;8.468;2023-07-24T14:52:37;23.10;99.90
11083;DHT22;5595;50.186;8.468;2023-07-24T14:55:06;23.40;99.90
11083;DHT22;5595;50.186;8.468;2023-07-24T14:57:33;23.50;99.90
11083;DHT22;5595;50.186;8.468;2023-07-24T15:00:00;23.70;99.90
11083;DHT22;5595;50.186;8.468;2023-07-24T15:02:27;23.80;99.90
11083;DHT22;5595;50.186;8.468;2023-07-24T15:04:54;23.90;99.90
11083;DHT22;5595;50.186;8.468;2023-07-24T15:07:22;23.80;99.90
11083;DHT22;5595;50.186;8.468;2023-07-24T15:09:48;23.70;99.90
11083;DHT22;5595;50.186;8.468;2023-07-24T15:12:15;23.60;99.90
11083;DHT22;5595;50.186;8.468;2023-07-24T15:14:42;23.60;99.90
11083;DHT22;5595;50.186;8.468;2023-07-24T15:17:09;23.50;99.90
11083;DHT22;5595;50.186;8.468;2023-07-24T15:19:37;23.50;99.90
11083;DHT22;5595;50.186;8.468;2023-07-24T15:22:04;23.50;99.90
11083;DHT22;5595;50.186;8.468;2023-07-24T15:24:32;23.50;99.90
11083;DHT22;5595;50.186;8.468;2023-07-24T15:26:59;23.40;99.90
11083;DHT22;5595;50.186;8.468;2023-07-24T15:29:27;23.30;99.90
11083;DHT22;5595;50.186;8.468;2023-07-24T15:31:54;23.20;99.90
11083;DHT22;5595;50.186;8.468;2023-07-24T15:34:21;23.40;99.90
11083;DHT22;5595;50.186;8.468;2023-07-24T15:36:47;23.40;99.90
11083;DHT22;5595;50.186;8.468;2023-07-24T15:39:14;23.50;99.90
11083;DHT22;5595;50.186;8.468;2023-07-24T15:41:42;23.60;99.90
11083;DHT22;5595;50.186;8.468;2023-07-24T15:44:09;23.70;99.90
11083;DHT22;5595;50.186;8.468;2023-07-24T15:46:36;23.70;99.90